createdAt,value
2023-02-17T00:01:21.877Z,10.08
2023-02-17T00:06:27.222Z,10.01
2023-02-17T00:11:32.334Z,10.01
2023-02-17T00:16:36.134Z,10.02
2023-02-17T00:21:39.839Z,10.02
2023-02-17T00:26:44.911Z,10.09
2023-02-17T00:31:48.894Z,10.04
2023-02-17T00:36:54.878Z,10.03
2023-02-17T00:41:59.936Z,10.03
2023-02-17T00:47:05.601Z,10.01
2023-02-17T00:52:09.584Z,10.07
2023-02-17T00:57:14.801Z,10.06
2023-02-17T01:02:19.340Z,10.05
2023-02-17T01:07:23.148Z,10.07
2023-02-17T01:12:28.188Z,10.13
2023-02-17T01:17:31.902Z,10.14
2023-02-17T01:22:35.565Z,10.06
2023-02-17T01:27:42.738Z,10.08
2023-02-17T01:32:46.502Z,10.13
2023-02-17T01:37:50.426Z,10.13
2023-02-17T01:42:55.505Z,10.10
2023-02-17T01:48:02.388Z,10.10
2023-02-17T01:53:07.432Z,10.04
2023-02-17T01:58:16.417Z,10.04
2023-02-17T02:03:20.778Z,10.00
2023-02-17T02:08:24.622Z,10.06
2023-02-17T02:13:32.837Z,10.01
2023-02-17T02:18:50.417Z,10.00
2023-02-17T02:24:13.886Z,9.98
2023-02-17T02:29:46.600Z,9.95
2023-02-17T02:35:00.154Z,9.92
2023-02-17T02:40:09.003Z,9.95
2023-02-17T02:45:13.856Z,9.89
2023-02-17T02:50:22.479Z,9.86
2023-02-17T02:55:38.484Z,9.86
2023-02-17T03:00:54.128Z,9.84
2023-02-17T03:06:08.223Z,9.86
2023-02-17T03:11:13.796Z,9.81
2023-02-17T03:16:17.514Z,9.89
2023-02-17T03:21:23.669Z,9.83
2023-02-17T03:26:27.421Z,9.81
2023-02-17T03:31:31.463Z,9.83
2023-02-17T03:36:36.534Z,9.83
2023-02-17T03:41:40.294Z,9.85
2023-02-17T03:46:43.984Z,9.84
2023-02-17T03:51:49.051Z,9.80
2023-02-17T03:56:52.829Z,9.82
2023-02-17T04:01:56.583Z,9.85
2023-02-17T04:07:01.694Z,9.84
2023-02-17T04:12:06.120Z,9.81
2023-02-17T04:17:09.837Z,9.79
2023-02-17T04:22:14.922Z,9.80
2023-02-17T04:27:18.668Z,9.76
2023-02-17T04:32:24.512Z,9.79
2023-02-17T04:37:29.622Z,9.77
2023-02-17T04:42:33.347Z,9.76
2023-02-17T04:47:37.098Z,9.75
2023-02-17T04:52:42.276Z,9.74
2023-02-17T04:57:45.971Z,9.73
2023-02-17T05:02:49.797Z,9.77
2023-02-17T05:07:54.905Z,9.65
2023-02-17T05:12:58.956Z,9.60
2023-02-17T05:18:02.792Z,9.60
2023-02-17T05:23:07.977Z,9.63
2023-02-17T05:28:11.767Z,9.49
2023-02-17T05:33:15.504Z,9.56
2023-02-17T05:38:21.010Z,9.52
2023-02-17T05:43:24.810Z,9.53
2023-02-17T05:48:28.549Z,9.55
2023-02-17T05:53:33.686Z,9.61
2023-02-17T05:58:37.734Z,9.60
2023-02-17T06:03:41.484Z,9.67
2023-02-17T06:08:46.643Z,9.65
2023-02-17T06:13:50.437Z,9.62
2023-02-17T06:18:54.205Z,9.67
2023-02-17T06:23:59.263Z,9.71
2023-02-17T06:29:02.981Z,9.74
2023-02-17T06:34:06.853Z,9.78
2023-02-17T06:39:12.040Z,9.75
2023-02-17T06:44:15.838Z,9.77
2023-02-17T06:49:19.897Z,9.78
2023-02-17T06:54:25.016Z,9.82
2023-02-17T06:59:29.260Z,9.79
2023-02-17T07:04:33.659Z,9.83
2023-02-17T07:09:39.556Z,9.90
2023-02-17T07:14:43.293Z,9.90
2023-02-17T07:19:47.089Z,9.93
2023-02-17T07:24:52.241Z,9.97
2023-02-17T07:29:56.467Z,9.93
2023-02-17T07:35:00.247Z,9.96
2023-02-17T07:40:06.394Z,10.03
2023-02-17T07:45:10.497Z,10.06
2023-02-17T07:50:14.283Z,10.08
2023-02-17T07:55:19.738Z,10.10
2023-02-17T08:00:23.752Z,10.12
2023-02-17T08:05:27.602Z,10.15
2023-02-17T08:10:50.391Z,10.17
2023-02-17T08:15:54.227Z,10.16
2023-02-17T08:20:57.986Z,10.17
2023-02-17T08:26:03.095Z,10.17
2023-02-17T08:31:06.975Z,10.22
2023-02-17T08:36:11.969Z,10.19
2023-02-17T08:41:20.070Z,10.31
2023-02-17T08:46:24.570Z,10.34
2023-02-17T08:51:28.450Z,10.41
2023-02-17T08:56:34.827Z,10.50
2023-02-17T09:01:40.012Z,10.58
2023-02-17T09:06:45.762Z,10.71
2023-02-17T09:11:51.146Z,10.79
2023-02-17T09:16:56.369Z,10.89
2023-02-17T09:22:00.220Z,10.94
2023-02-17T09:27:07.560Z,10.97
2023-02-17T09:32:11.629Z,11.02
2023-02-17T09:37:15.459Z,11.04
2023-02-17T09:42:22.814Z,11.03
2023-02-17T09:47:32.979Z,11.02
2023-02-17T09:52:44.606Z,11.07
2023-02-17T09:57:55.658Z,11.09
2023-02-17T10:03:05.965Z,11.08
2023-02-17T10:08:15.877Z,11.17
2023-02-17T10:13:23.899Z,11.12
2023-02-17T10:18:34.341Z,11.23
2023-02-17T10:23:38.482Z,11.19
2023-02-17T10:28:52.097Z,11.30
2023-02-17T10:34:02.337Z,11.22
2023-02-17T10:39:15.375Z,11.15
2023-02-17T10:44:23.829Z,11.23
2023-02-17T10:49:31.396Z,11.34
2023-02-17T10:54:39.491Z,11.44
2023-02-17T10:59:46.565Z,11.39
2023-02-17T11:04:54.912Z,11.36
2023-02-17T11:10:01.219Z,11.38
2023-02-17T11:15:15.641Z,11.43
2023-02-17T11:20:35.519Z,11.48
2023-02-17T11:25:39.432Z,11.46
2023-02-17T11:30:51.732Z,11.55
2023-02-17T11:35:56.644Z,11.64
2023-02-17T11:41:02.206Z,11.63
2023-02-17T11:46:32.071Z,11.74
2023-02-17T11:51:47.917Z,11.67
2023-02-17T11:57:08.232Z,11.88
2023-02-17T12:02:33.016Z,11.84
2023-02-17T12:07:47.956Z,11.69
2023-02-17T12:13:15.187Z,11.75
2023-02-17T12:18:34.597Z,11.70
2023-02-17T12:23:58.341Z,11.77
2023-02-17T12:29:13.563Z,11.80
2023-02-17T12:34:29.310Z,11.78
2023-02-17T12:39:39.493Z,11.70
2023-02-17T12:44:47.081Z,11.75
2023-02-17T12:50:01.154Z,11.77
2023-02-17T12:55:14.735Z,11.75
2023-02-17T13:00:22.208Z,11.69
2023-02-17T13:05:33.409Z,11.79
2023-02-17T13:10:39.878Z,11.73
2023-02-17T13:15:46.004Z,11.68
2023-02-17T13:21:00.839Z,11.70
2023-02-17T13:26:17.910Z,11.70
2023-02-17T13:31:23.940Z,11.71
2023-02-17T13:36:38.139Z,11.73
2023-02-17T13:41:47.944Z,11.65
2023-02-17T13:46:52.373Z,11.65
2023-02-17T13:52:08.743Z,11.57
2023-02-17T13:57:24.474Z,11.58
2023-02-17T14:02:36.066Z,11.55
2023-02-17T14:07:41.610Z,11.51
2023-02-17T14:12:45.610Z,11.53
2023-02-17T14:17:49.862Z,11.50
2023-02-17T14:23:04.831Z,11.52
2023-02-17T14:28:19.765Z,11.65
2023-02-17T14:33:26.013Z,11.77
2023-02-17T14:38:35.074Z,11.84
2023-02-17T14:43:38.847Z,11.94
2023-02-17T14:48:44.649Z,11.95
2023-02-17T14:53:50.860Z,11.91
2023-02-17T14:58:55.087Z,11.91
2023-02-17T15:03:59.095Z,11.93
2023-02-17T15:09:04.163Z,11.96
2023-02-17T15:14:08.114Z,11.92
2023-02-17T15:19:12.109Z,11.94
2023-02-17T15:24:19.877Z,11.90
2023-02-17T15:29:25.116Z,11.88
2023-02-17T15:34:32.173Z,11.86
2023-02-17T15:39:37.320Z,11.81
2023-02-17T15:44:44.222Z,11.83
2023-02-17T15:49:48.109Z,11.79
2023-02-17T15:54:53.869Z,11.75
2023-02-17T15:59:57.774Z,11.72
2023-02-17T16:05:01.532Z,11.75
2023-02-17T16:10:08.153Z,11.69
2023-02-17T16:15:15.755Z,11.69
2023-02-17T16:20:22.202Z,11.58
2023-02-17T16:25:28.680Z,11.66
2023-02-17T16:30:35.190Z,11.62
2023-02-17T16:35:40.368Z,11.59
2023-02-17T16:40:49.011Z,11.58
2023-02-17T16:45:56.019Z,11.51
2023-02-17T16:51:00.048Z,11.47
2023-02-17T16:56:14.972Z,11.42
2023-02-17T17:01:18.746Z,11.46
2023-02-17T17:06:25.228Z,11.39
2023-02-17T17:11:30.339Z,11.42
2023-02-17T17:16:34.813Z,11.40
2023-02-17T17:21:38.594Z,11.42
2023-02-17T17:26:45.815Z,11.38
2023-02-17T17:31:49.932Z,11.35
2023-02-17T17:36:53.800Z,11.30
2023-02-17T17:41:58.867Z,11.27
2023-02-17T17:47:02.811Z,11.27
2023-02-17T17:52:06.577Z,11.24
2023-02-17T17:57:11.668Z,11.24
2023-02-17T18:02:15.448Z,11.22
2023-02-17T18:07:19.288Z,11.16
2023-02-17T18:12:24.411Z,11.20
2023-02-17T18:17:28.198Z,11.18
2023-02-17T18:22:31.904Z,11.11
2023-02-17T18:27:41.825Z,11.08
2023-02-17T18:32:46.064Z,11.00
2023-02-17T18:37:49.828Z,10.98
2023-02-17T18:42:54.974Z,10.96
2023-02-17T18:47:58.828Z,10.96
2023-02-17T18:53:04.930Z,10.95
2023-02-17T18:58:12.326Z,10.95
2023-02-17T19:03:16.230Z,10.90
2023-02-17T19:08:20.008Z,10.86
2023-02-17T19:13:25.063Z,10.87
2023-02-17T19:18:28.769Z,10.78
2023-02-17T19:23:32.594Z,10.81
2023-02-17T19:28:38.518Z,10.76
2023-02-17T19:33:42.972Z,10.72
2023-02-17T19:38:46.967Z,10.61
2023-02-17T19:43:52.195Z,10.55
2023-02-17T19:48:56.040Z,10.54
2023-02-17T19:54:00.622Z,10.52
2023-02-17T19:59:05.725Z,10.44
2023-02-17T20:04:09.466Z,10.45
2023-02-17T20:09:17.981Z,10.42
2023-02-17T20:14:23.237Z,10.42
2023-02-17T20:19:27.021Z,10.40
2023-02-17T20:24:30.722Z,10.37
2023-02-17T20:29:36.436Z,10.40
2023-02-17T20:34:40.870Z,10.40
2023-02-17T20:39:44.550Z,10.42
2023-02-17T20:44:51.008Z,10.40
2023-02-17T20:49:54.764Z,10.45
2023-02-17T20:54:58.467Z,10.44
2023-02-17T21:00:04.776Z,10.47
2023-02-17T21:05:09.270Z,10.51
2023-02-17T21:10:16.986Z,10.47
2023-02-17T21:15:22.674Z,10.52
2023-02-17T21:20:26.364Z,10.51
2023-02-17T21:25:30.175Z,10.53
2023-02-17T21:30:35.207Z,10.58
2023-02-17T21:35:41.105Z,10.56
2023-02-17T21:40:44.868Z,10.59
2023-02-17T21:45:50.000Z,10.55
2023-02-17T21:50:53.968Z,10.54
2023-02-17T21:55:57.649Z,10.61
2023-02-17T22:01:02.791Z,10.61
2023-02-17T22:06:14.211Z,10.57
2023-02-17T22:11:19.414Z,10.55
2023-02-17T22:16:24.897Z,10.58
2023-02-17T22:21:29.127Z,10.60
2023-02-17T22:26:33.173Z,10.58
2023-02-17T22:31:40.520Z,10.58
2023-02-17T22:36:44.383Z,10.57
2023-02-17T22:41:48.163Z,10.57
2023-02-17T22:46:53.210Z,10.59
2023-02-17T22:51:57.030Z,10.62
2023-02-17T22:57:00.847Z,10.59
2023-02-17T23:02:06.162Z,10.59
2023-02-17T23:07:09.993Z,10.55
2023-02-17T23:12:13.720Z,10.62
2023-02-17T23:17:18.861Z,10.59
2023-02-17T23:22:22.517Z,10.57
2023-02-17T23:27:26.241Z,10.56
2023-02-17T23:32:31.332Z,10.60
2023-02-17T23:37:35.052Z,10.55
2023-02-17T23:42:39.158Z,10.59
2023-02-17T23:47:44.188Z,10.57
2023-02-17T23:52:47.895Z,10.58
2023-02-17T23:57:51.628Z,10.59
